Time;durP1;ratioP1;P1;durP2;ratioP2;P2;SDS_P1;SDS_P2;PMS_P1;PMS_P2;Temp;Humidity;BMP_temperature;BMP_pressure;BME280_temperature;BME280_humidity;BME280_pressure;Samples;Min_cycle;Max_cycle;Signal;HPM_P1;HPM_P2
2024/02/28 00:02:11;;;;;;;29.20;11.13;;;0.50;99.90;;;;;;4992926;28;20018;-51
2024/02/28 00:04:40;;;;;;;33.03;10.63;;;0.50;99.90;;;;;;4992722;28;20430;-54
2024/02/28 00:07:05;;;;;;;33.33;11.07;;;0.40;99.90;;;;;;4992549;28;20049;-50
2024/02/28 00:09:31;;;;;;;31.13;10.77;;;0.40;99.90;;;;;;4992461;28;20113;-54
2024/02/28 00:11:56;;;;;;;25.77;9.90;;;0.40;99.90;;;;;;4992255;28;20038;-54
2024/02/28 00:14:22;;;;;;;34.07;10.37;;;0.30;99.90;;;;;;4992189;28;20065;-53
2024/02/28 00:16:48;;;;;;;30.20;10.00;;;0.20;99.90;;;;;;4992589;28;20041;-54
2024/02/28 00:19:13;;;;;;;29.50;9.73;;;0.20;99.90;;;;;;4992342;28;20031;-54
2024/02/28 00:21:40;;;;;;;35.67;10.77;;;0.10;99.90;;;;;;4992453;28;20062;-54
2024/02/28 00:24:07;;;;;;;30.17;10.90;;;0.20;99.90;;;;;;4992373;28;20534;-55
2024/02/28 00:26:32;;;;;;;29.97;11.00;;;0.10;99.90;;;;;;4992388;28;20026;-54
2024/02/28 00:28:58;;;;;;;35.43;9.83;;;0.00;99.90;;;;;;4991424;28;20076;-50
2024/02/28 00:31:24;;;;;;;32.63;9.90;;;0.00;99.90;;;;;;4992375;28;20418;-51
2024/02/28 00:33:49;;;;;;;32.67;10.87;;;-0.10;99.90;;;;;;4992356;28;20045;-50
2024/02/28 00:36:15;;;;;;;34.03;10.50;;;-0.20;99.90;;;;;;4992274;28;20034;-50
2024/02/28 00:38:41;;;;;;;35.27;11.23;;;-0.10;99.90;;;;;;4992326;28;20026;-50
2024/02/28 00:41:07;;;;;;;34.10;11.50;;;-0.20;99.90;;;;;;4991986;28;20159;-50
2024/02/28 00:43:33;;;;;;;34.40;11.73;;;-0.20;99.90;;;;;;4992289;28;20030;-52
2024/02/28 00:45:58;;;;;;;28.50;11.03;;;-0.20;99.90;;;;;;4992127;28;20065;-53
2024/02/28 00:48:24;;;;;;;28.03;10.37;;;-0.30;99.90;;;;;;4992114;28;20136;-51
2024/02/28 00:50:50;;;;;;;36.23;10.67;;;-0.30;99.90;;;;;;4990582;28;20040;-52
2024/02/28 00:53:17;;;;;;;30.70;11.30;;;-0.40;99.90;;;;;;4992104;28;20030;-52
2024/02/28 00:55:43;;;;;;;29.73;9.53;;;-0.40;99.90;;;;;;4992344;28;20520;-51
2024/02/28 00:58:08;;;;;;;37.07;11.67;;;-0.40;99.90;;;;;;4992475;28;20030;-49
2024/02/28 01:00:35;;;;;;;31.27;10.83;;;-0.40;99.90;;;;;;4992549;28;20053;-50
2024/02/28 01:03:03;;;;;;;31.90;11.17;;;-0.40;99.90;;;;;;4991150;28;20030;-54
2024/02/28 01:05:32;;;;;;;35.50;11.35;;;-0.30;99.90;;;;;;4991832;28;20026;-55
2024/02/28 01:07:58;;;;;;;31.38;11.20;;;-0.30;99.90;;;;;;4992461;28;20483;-54
2024/02/28 01:10:24;;;;;;;33.97;10.87;;;-0.30;99.90;;;;;;4992605;28;20037;-54
2024/02/28 01:12:49;;;;;;;33.30;10.63;;;-0.20;99.90;;;;;;4995448;28;20395;-53
2024/02/28 01:15:15;;;;;;;33.63;11.30;;;-0.10;99.90;;;;;;4995220;28;20041;-53
2024/02/28 01:17:40;;;;;;;29.03;10.07;;;-0.10;99.90;;;;;;4995366;28;20442;-50
2024/02/28 01:20:08;;;;;;;34.20;10.73;;;0.00;99.90;;;;;;4995965;28;20117;-51
2024/02/28 01:22:34;;;;;;;34.50;10.50;;;0.10;99.90;;;;;;4995795;28;20543;-53
2024/02/28 01:24:59;;;;;;;34.77;11.37;;;0.20;99.90;;;;;;4995216;28;20122;-54
2024/02/28 01:27:25;;;;;;;33.80;11.53;;;0.20;99.90;;;;;;4994052;28;20034;-54
2024/02/28 01:29:53;;;;;;;40.53;11.40;;;0.20;99.90;;;;;;4995017;28;20030;-52
2024/02/28 01:32:19;;;;;;;38.53;11.37;;;0.20;99.90;;;;;;4995053;28;20106;-55
2024/02/28 01:34:45;;;;;;;39.07;12.57;;;0.20;99.90;;;;;;4995057;28;20041;-54
2024/02/28 01:37:11;;;;;;;40.40;11.57;;;0.20;99.90;;;;;;4993818;28;20027;-53
2024/02/28 01:39:37;;;;;;;36.47;12.07;;;0.20;99.90;;;;;;4993554;28;20034;-55
2024/02/28 01:42:03;;;;;;;38.27;10.97;;;0.20;99.90;;;;;;4994709;28;20387;-55
2024/02/28 01:44:28;;;;;;;37.77;11.70;;;0.20;99.90;;;;;;4994857;28;20089;-52
2024/02/28 01:46:56;;;;;;;38.27;12.17;;;0.20;99.90;;;;;;4994947;28;20049;-55
2024/02/28 01:49:22;;;;;;;34.03;11.93;;;0.30;99.90;;;;;;4994767;28;20039;-54
2024/02/28 01:51:50;;;;;;;33.87;11.03;;;0.30;99.90;;;;;;4994600;28;20030;-52
2024/02/28 01:54:16;;;;;;;40.63;11.00;;;0.30;99.90;;;;;;4994613;28;20034;-51
2024/02/28 01:56:43;;;;;;;43.53;12.47;;;0.20;99.90;;;;;;4994608;28;20042;-54
2024/02/28 01:59:10;;;;;;;38.47;11.93;;;0.20;99.90;;;;;;4994602;28;20118;-53
2024/02/28 02:01:37;;;;;;;40.53;11.77;;;0.10;99.90;;;;;;4994394;28;20030;-55
2024/02/28 02:04:03;;;;;;;38.97;11.03;;;0.10;99.90;;;;;;4994494;28;20121;-55
2024/02/28 02:06:30;;;;;;;44.63;11.93;;;0.10;99.90;;;;;;4994544;28;20114;-50
2024/02/28 02:08:56;;;;;;;40.80;12.60;;;0.20;99.90;;;;;;4994584;28;20045;-53
2024/02/28 02:11:23;;;;;;;43.20;12.10;;;0.20;99.90;;;;;;4994143;28;20045;-53
2024/02/28 02:13:53;;;;;;;33.97;10.70;;;0.30;99.90;;;;;;4993010;28;20038;-53
2024/02/28 02:16:21;;;;;;;40.33;10.53;;;0.20;99.90;;;;;;4994224;28;20054;-54
2024/02/28 02:18:48;;;;;;;35.08;11.35;;;0.30;99.90;;;;;;4994302;28;20113;-55
2024/02/28 02:21:17;;;;;;;41.77;11.53;;;0.40;99.90;;;;;;4993670;28;20112;-55
2024/02/28 02:23:43;;;;;;;47.03;12.13;;;0.40;99.90;;;;;;4993542;28;20046;-51
2024/02/28 02:26:08;;;;;;;45.97;12.67;;;0.30;99.90;;;;;;4994082;28;20414;-54
2024/02/28 02:28:34;;;;;;;41.40;12.20;;;0.40;99.90;;;;;;4994496;28;20035;-50
2024/02/28 02:31:00;;;;;;;40.70;11.13;;;0.50;99.90;;;;;;4994218;28;20034;-55
2024/02/28 02:33:25;;;;;;;40.13;12.30;;;0.50;99.90;;;;;;4994092;28;20118;-54
2024/02/28 02:35:53;;;;;;;39.50;11.70;;;0.50;99.90;;;;;;4993698;28;20034;-53
2024/02/28 02:38:19;;;;;;;45.60;13.37;;;0.50;99.90;;;;;;4993897;28;20105;-55
2024/02/28 02:40:52;;;;;;;56.73;13.77;;;0.50;99.90;;;;;;4993659;28;20448;-54
2024/02/28 02:43:17;;;;;;;44.03;12.67;;;0.50;99.90;;;;;;4993833;28;20031;-55
2024/02/28 02:45:43;;;;;;;49.17;12.87;;;0.50;99.90;;;;;;4993554;28;20057;-54
2024/02/28 02:48:09;;;;;;;53.23;11.70;;;0.50;99.90;;;;;;4993629;28;20033;-52
2024/02/28 02:50:34;;;;;;;48.00;13.90;;;0.50;99.90;;;;;;4993314;28;20491;-53
2024/02/28 02:53:01;;;;;;;50.90;13.07;;;0.50;99.90;;;;;;4992263;28;20038;-52
2024/02/28 02:55:26;;;;;;;45.20;12.10;;;0.50;99.90;;;;;;4993353;28;20034;-53
2024/02/28 02:57:52;;;;;;;46.57;12.73;;;0.50;99.90;;;;;;4993711;28;20475;-55
2024/02/28 03:00:18;;;;;;;40.97;12.77;;;0.50;99.90;;;;;;4993223;28;20033;-51
2024/02/28 03:02:43;;;;;;;39.57;12.43;;;0.50;99.90;;;;;;4993444;28;20060;-51
2024/02/28 03:05:09;;;;;;;46.40;12.43;;;0.50;99.90;;;;;;4993197;28;20042;-51
2024/02/28 03:07:35;;;;;;;43.10;12.63;;;0.60;99.90;;;;;;4993489;28;20034;-54
2024/02/28 03:10:01;;;;;;;45.87;14.43;;;0.60;99.90;;;;;;4993128;28;20133;-52
2024/02/28 03:12:27;;;;;;;54.33;13.30;;;0.60;99.90;;;;;;4993120;28;20406;-50
2024/02/28 03:14:53;;;;;;;53.50;14.03;;;0.60;99.90;;;;;;4992985;28;20173;-50
2024/02/28 03:17:18;;;;;;;39.80;13.27;;;0.70;99.90;;;;;;4993113;28;20114;-50
2024/02/28 03:19:44;;;;;;;39.77;13.17;;;0.80;99.90;;;;;;4992988;28;20030;-51
2024/02/28 03:22:09;;;;;;;48.33;15.37;;;0.80;99.90;;;;;;4992918;28;20030;-49
2024/02/28 03:24:35;;;;;;;46.40;15.03;;;0.90;99.90;;;;;;4992696;28;20395;-50
2024/02/28 03:27:04;;;;;;;50.83;15.30;;;1.00;99.90;;;;;;4993258;28;20034;-49
2024/02/28 03:29:30;;;;;;;65.72;15.90;;;1.10;99.90;;;;;;4992762;28;20081;-53
2024/02/28 03:31:56;;;;;;;58.97;14.73;;;1.10;99.90;;;;;;4992776;28;20038;-53
2024/02/28 03:34:21;;;;;;;57.07;15.27;;;1.10;99.90;;;;;;4992396;28;20038;-52
2024/02/28 03:36:47;;;;;;;58.87;16.47;;;1.10;99.90;;;;;;4992838;28;20034;-49
2024/02/28 03:39:13;;;;;;;60.33;16.43;;;1.10;99.90;;;;;;4992638;28;20032;-49
2024/02/28 03:41:39;;;;;;;56.43;14.90;;;1.20;99.90;;;;;;4992505;28;20035;-49
2024/02/28 03:44:05;;;;;;;62.23;16.70;;;1.20;99.90;;;;;;4992548;28;20033;-50
2024/02/28 03:46:31;;;;;;;69.57;17.87;;;1.30;99.90;;;;;;4991517;28;20037;-49
2024/02/28 03:48:57;;;;;;;65.30;18.57;;;1.30;99.90;;;;;;4992513;28;20387;-49
2024/02/28 03:51:22;;;;;;;64.53;16.47;;;1.30;99.90;;;;;;4992338;28;20085;-51
2024/02/28 03:53:48;;;;;;;67.50;17.17;;;1.30;99.90;;;;;;4992438;28;20466;-49
2024/02/28 03:56:28;;;;;;;68.87;18.43;;;1.50;99.90;;;;;;4992551;28;20038;-50
2024/02/28 03:58:54;;;;;;;67.97;17.90;;;1.60;99.90;;;;;;4992399;28;20076;-49
2024/02/28 04:01:19;;;;;;;64.60;16.73;;;1.50;99.90;;;;;;4992162;28;20042;-50
2024/02/28 04:03:45;;;;;;;65.37;18.07;;;1.60;99.90;;;;;;4992202;28;20026;-50
2024/02/28 04:06:11;;;;;;;71.20;18.70;;;1.60;99.90;;;;;;4992428;28;20030;-49
2024/02/28 04:08:37;;;;;;;71.93;18.90;;;1.70;99.90;;;;;;4992411;28;20395;-54
2024/02/28 04:11:03;;;;;;;67.43;18.63;;;1.70;99.90;;;;;;4992173;28;20027;-49
2024/02/28 04:13:29;;;;;;;75.93;20.60;;;1.70;99.90;;;;;;4992304;28;20030;-53
2024/02/28 04:15:55;;;;;;;70.77;19.40;;;1.70;99.90;;;;;;4992151;28;20133;-49
2024/02/28 04:18:21;;;;;;;82.93;21.47;;;1.70;99.90;;;;;;4992331;28;20034;-49
2024/02/28 04:20:46;;;;;;;83.30;22.57;;;1.80;99.90;;;;;;4992079;28;20041;-49
2024/02/28 04:23:12;;;;;;;77.17;22.40;;;1.90;99.90;;;;;;4992189;28;20030;-49
2024/02/28 04:25:40;;;;;;;78.97;22.43;;;1.90;99.90;;;;;;4992278;28;20431;-50
2024/02/28 04:28:08;;;;;;;76.73;19.53;;;2.00;99.90;;;;;;4992384;28;20694;-49
2024/02/28 04:30:34;;;;;;;83.40;22.13;;;2.00;99.90;;;;;;4991998;28;20042;-51
2024/02/28 04:33:00;;;;;;;77.13;20.40;;;2.10;99.90;;;;;;4992198;28;20034;-50
2024/02/28 04:35:25;;;;;;;95.10;23.33;;;2.10;99.90;;;;;;4992169;28;20034;-49
2024/02/28 04:37:51;;;;;;;86.73;22.33;;;2.20;99.90;;;;;;4992074;28;20023;-50
2024/02/28 04:40:17;;;;;;;81.60;22.57;;;2.20;99.90;;;;;;4991828;28;20031;-49
2024/02/28 04:42:45;;;;;;;73.97;21.50;;;2.20;99.90;;;;;;4992178;28;20085;-53
2024/02/28 04:45:11;;;;;;;70.60;21.00;;;2.10;99.90;;;;;;4992479;28;20042;-52
2024/02/28 04:47:38;;;;;;;80.27;21.70;;;2.20;99.90;;;;;;4996162;28;20058;-51
2024/02/28 04:50:04;;;;;;;71.27;20.93;;;2.10;99.90;;;;;;4995847;28;20399;-54
2024/02/28 04:52:33;;;;;;;81.43;21.33;;;2.10;99.90;;;;;;4995704;28;20044;-54
2024/02/28 04:54:59;;;;;;;75.97;21.08;;;2.10;99.90;;;;;;4995601;28;20042;-54
2024/02/28 04:57:25;;;;;;;77.50;20.30;;;2.20;99.90;;;;;;4995929;28;20360;-53
2024/02/28 04:59:51;;;;;;;75.07;18.90;;;2.20;99.90;;;;;;4995717;28;20037;-53
2024/02/28 05:02:16;;;;;;;71.10;19.80;;;2.20;99.90;;;;;;4996308;28;20030;-54
2024/02/28 05:04:43;;;;;;;63.77;18.40;;;2.20;99.90;;;;;;4995862;28;20039;-49
2024/02/28 05:07:09;;;;;;;76.37;19.63;;;2.20;99.90;;;;;;4996092;28;20054;-49
2024/02/28 05:09:35;;;;;;;70.80;20.10;;;2.10;99.90;;;;;;4995679;28;20462;-50
2024/02/28 05:12:01;;;;;;;72.53;22.97;;;2.20;99.90;;;;;;4995460;28;20067;-53
2024/02/28 05:14:27;;;;;;;73.17;21.73;;;2.20;99.90;;;;;;4995444;28;20133;-53
2024/02/28 05:16:52;;;;;;;74.83;21.53;;;2.20;99.90;;;;;;4995565;28;20122;-54
2024/02/28 05:19:18;;;;;;;75.37;20.87;;;2.20;99.90;;;;;;4995567;28;20457;-54
2024/02/28 05:21:45;;;;;;;86.37;22.57;;;2.20;99.90;;;;;;4995394;28;20027;-54
2024/02/28 05:24:10;;;;;;;77.03;21.90;;;2.20;99.90;;;;;;4995601;28;20117;-49
2024/02/28 05:26:36;;;;;;;83.70;22.40;;;2.20;99.90;;;;;;4995288;28;20121;-49
2024/02/28 05:29:03;;;;;;;94.33;25.03;;;2.10;99.90;;;;;;4995181;28;20430;-52
2024/02/28 05:31:29;;;;;;;85.83;24.03;;;2.10;99.90;;;;;;4994928;28;20502;-49
2024/02/28 05:33:56;;;;;;;81.83;23.40;;;2.10;99.90;;;;;;4995089;28;20121;-50
2024/02/28 05:36:23;;;;;;;84.67;22.40;;;2.10;99.90;;;;;;4994952;28;20038;-54
2024/02/28 05:38:49;;;;;;;85.87;23.30;;;2.20;99.90;;;;;;4995426;28;20038;-50
2024/02/28 05:41:17;;;;;;;90.50;24.53;;;2.20;99.90;;;;;;4994811;28;20038;-51
2024/02/28 05:43:43;;;;;;;91.93;25.60;;;2.20;99.90;;;;;;4994873;28;20034;-52
2024/02/28 05:46:08;;;;;;;90.77;22.30;;;2.20;99.90;;;;;;4994753;28;20046;-50
2024/02/28 05:48:34;;;;;;;76.27;23.70;;;2.30;99.90;;;;;;4993573;28;20041;-49
2024/02/28 05:51:03;;;;;;;83.00;22.97;;;2.30;99.90;;;;;;4994491;28;20030;-54
2024/02/28 05:53:36;;;;;;;89.65;25.67;;;2.40;99.90;;;;;;4994861;28;20479;-53
2024/02/28 05:56:02;;;;;;;98.70;26.00;;;2.50;99.90;;;;;;4994446;28;20044;-51
2024/02/28 05:58:28;;;;;;;92.57;24.33;;;2.50;99.90;;;;;;4994856;28;20042;-50
2024/02/28 06:00:54;;;;;;;102.73;24.87;;;2.50;99.90;;;;;;4994604;28;20041;-53
2024/02/28 06:03:20;;;;;;;94.40;26.27;;;2.50;99.90;;;;;;4994717;28;20022;-51
2024/02/28 06:05:46;;;;;;;97.33;25.73;;;2.60;99.90;;;;;;4994430;28;20533;-52
2024/02/28 06:08:12;;;;;;;95.70;23.93;;;2.60;99.90;;;;;;4995029;28;20391;-54
2024/02/28 06:10:38;;;;;;;92.60;23.30;;;2.60;99.90;;;;;;4994160;28;20037;-54
2024/02/28 06:13:04;;;;;;;91.43;25.50;;;2.60;99.90;;;;;;4994415;28;20072;-50
2024/02/28 06:15:30;;;;;;;95.90;24.57;;;2.60;99.90;;;;;;4994449;28;20030;-49
2024/02/28 06:18:01;;;;;;;88.97;23.53;;;2.70;99.90;;;;;;4994319;28;20022;-50
2024/02/28 06:20:27;;;;;;;66.30;17.70;;;2.60;99.90;;;;;;4994020;28;20522;-52
2024/02/28 06:22:53;;;;;;;69.13;19.70;;;2.60;99.90;;;;;;4994312;28;20434;-50
2024/02/28 06:25:22;;;;;;;70.17;20.60;;;2.60;99.90;;;;;;4994036;28;20030;-50
2024/02/28 06:27:47;;;;;;;76.60;21.58;;;2.50;99.90;;;;;;4994101;28;20450;-52
2024/02/28 06:30:13;;;;;;;66.20;19.37;;;2.40;99.90;;;;;;4993895;28;20026;-53
2024/02/28 06:32:39;;;;;;;67.87;18.63;;;2.40;99.90;;;;;;4994132;28;20129;-50
2024/02/28 06:35:07;;;;;;;60.50;16.40;;;2.30;99.90;;;;;;4992472;28;20065;-51
2024/02/28 06:37:33;;;;;;;51.30;16.27;;;2.30;99.90;;;;;;4994000;28;20023;-52
2024/02/28 06:39:58;;;;;;;60.97;16.00;;;2.30;99.90;;;;;;4993907;28;20381;-54
2024/02/28 06:42:24;;;;;;;63.73;16.30;;;2.30;99.90;;;;;;4993651;28;20034;-53
2024/02/28 06:44:49;;;;;;;57.47;16.30;;;2.40;99.90;;;;;;4993525;28;20042;-54
2024/02/28 06:47:15;;;;;;;51.80;13.47;;;2.30;99.90;;;;;;4993796;28;20587;-54
2024/02/28 06:49:41;;;;;;;62.37;17.37;;;2.30;99.90;;;;;;4993588;28;20050;-54
2024/02/28 06:52:06;;;;;;;64.37;16.87;;;2.30;99.90;;;;;;4992273;28;20046;-53
2024/02/28 06:54:32;;;;;;;64.53;16.87;;;2.20;99.90;;;;;;4993454;28;20116;-53
2024/02/28 06:56:58;;;;;;;71.37;18.10;;;2.20;99.90;;;;;;4993597;28;20034;-52
2024/02/28 06:59:23;;;;;;;60.30;17.33;;;2.20;99.90;;;;;;4993535;28;20060;-54
2024/02/28 07:01:49;;;;;;;66.83;18.30;;;2.20;99.90;;;;;;4993441;28;20026;-54
2024/02/28 07:04:14;;;;;;;71.33;18.17;;;2.30;99.90;;;;;;4993414;28;20479;-54
2024/02/28 07:06:40;;;;;;;97.33;28.17;;;2.40;99.90;;;;;;4993390;28;20026;-49
2024/02/28 07:09:09;;;;;;;71.70;18.87;;;2.40;99.90;;;;;;4992699;28;20113;-53
2024/02/28 07:11:35;;;;;;;70.97;19.63;;;2.40;99.90;;;;;;4993310;28;20084;-50
2024/02/28 07:14:03;;;;;;;75.07;19.40;;;2.60;99.90;;;;;;4993464;28;20030;-54
2024/02/28 07:16:30;;;;;;;79.13;19.90;;;2.70;99.90;;;;;;4993362;28;20109;-53
2024/02/28 07:18:56;;;;;;;81.57;20.07;;;2.70;99.90;;;;;;4993327;28;20106;-54
2024/02/28 07:21:21;;;;;;;72.53;20.47;;;2.70;99.90;;;;;;4992934;28;20049;-52
2024/02/28 07:23:47;;;;;;;74.17;18.23;;;2.80;99.90;;;;;;4991837;28;20042;-53
2024/02/28 07:26:16;;;;;;;72.30;18.77;;;2.80;99.90;;;;;;4993223;28;20038;-54
2024/02/28 07:28:42;;;;;;;73.53;17.98;;;2.80;99.90;;;;;;4993068;28;20105;-54
2024/02/28 07:31:17;;;;;;;78.87;19.13;;;2.80;99.90;;;;;;4992782;28;20034;-53
2024/02/28 07:33:43;;;;;;;86.17;21.40;;;2.90;99.90;;;;;;4992953;28;20419;-53
2024/02/28 07:36:08;;;;;;;82.20;18.37;;;3.00;99.90;;;;;;4992896;28;20253;-53
2024/02/28 07:38:34;;;;;;;74.17;17.90;;;3.00;99.90;;;;;;4993041;28;20541;-53
2024/02/28 07:41:00;;;;;;;81.37;19.93;;;3.00;99.90;;;;;;4993246;28;20026;-53
2024/02/28 07:43:25;;;;;;;70.43;18.27;;;3.00;99.90;;;;;;4993702;28;20030;-52
2024/02/28 07:45:51;;;;;;;72.17;19.47;;;3.00;99.90;;;;;;4994569;28;20073;-49
2024/02/28 07:48:17;;;;;;;73.63;18.83;;;3.00;99.90;;;;;;4993335;28;20569;-53
2024/02/28 07:50:44;;;;;;;80.73;18.90;;;3.00;99.90;;;;;;4992688;28;20038;-53
2024/02/28 07:53:10;;;;;;;80.77;19.23;;;3.10;99.90;;;;;;4993069;28;20410;-54
2024/02/28 07:55:35;;;;;;;83.27;19.93;;;3.10;99.90;;;;;;4992813;28;20026;-53
2024/02/28 07:58:01;;;;;;;80.50;19.63;;;3.10;99.90;;;;;;4992901;28;20376;-53
2024/02/28 08:00:27;;;;;;;79.80;19.57;;;3.10;99.90;;;;;;4992357;28;20077;-54
2024/02/28 08:02:52;;;;;;;85.93;20.37;;;3.20;99.90;;;;;;4992593;28;20045;-52
2024/02/28 08:05:18;;;;;;;88.23;21.60;;;3.20;99.90;;;;;;4992455;28;20392;-52
2024/02/28 08:07:43;;;;;;;77.50;19.20;;;3.30;99.90;;;;;;4992731;28;20061;-54
2024/02/28 08:10:10;;;;;;;79.43;20.83;;;3.40;99.90;;;;;;4992419;28;20031;-52
2024/02/28 08:12:36;;;;;;;81.43;20.27;;;3.50;99.90;;;;;;4992768;28;20038;-54
2024/02/28 08:15:02;;;;;;;85.57;20.90;;;3.50;99.90;;;;;;4992337;28;20114;-51
2024/02/28 08:17:28;;;;;;;81.30;19.17;;;3.60;99.90;;;;;;4991329;28;20061;-54
2024/02/28 08:19:54;;;;;;;78.40;21.53;;;3.50;99.90;;;;;;4994699;28;20066;-54
2024/02/28 08:22:20;;;;;;;71.40;20.10;;;3.50;99.90;;;;;;4996871;28;20036;-54
2024/02/28 08:24:45;;;;;;;66.80;19.57;;;3.50;99.90;;;;;;4996453;28;20080;-54
2024/02/28 08:27:11;;;;;;;74.60;19.23;;;3.50;99.90;;;;;;4995379;28;20489;-55
2024/02/28 08:29:43;;;;;;;81.57;18.87;;;3.60;99.90;;;;;;4996369;28;20038;-54
2024/02/28 08:32:10;;;;;;;87.53;20.07;;;3.60;99.90;;;;;;4996127;28;20488;-53
2024/02/28 08:34:36;;;;;;;80.03;21.97;;;3.60;99.90;;;;;;4996195;28;20070;-54
2024/02/28 08:37:01;;;;;;;78.57;18.60;;;3.50;99.90;;;;;;4996194;28;20112;-54
2024/02/28 08:39:27;;;;;;;78.17;19.37;;;3.50;99.90;;;;;;4996072;28;20045;-54
2024/02/28 08:41:53;;;;;;;78.40;19.93;;;3.50;99.90;;;;;;4996079;28;20030;-54
2024/02/28 08:44:19;;;;;;;86.43;22.70;;;3.50;99.90;;;;;;4994777;28;20503;-55
2024/02/28 08:46:47;;;;;;;82.13;18.67;;;3.50;99.90;;;;;;4996075;28;20506;-52
2024/02/28 08:49:14;;;;;;;71.18;18.63;;;3.40;99.90;;;;;;4996003;28;20038;-54
2024/02/28 08:51:40;;;;;;;88.67;22.43;;;3.40;99.90;;;;;;4995805;28;20081;-55
2024/02/28 08:54:06;;;;;;;75.80;20.07;;;3.40;99.90;;;;;;4996019;28;20038;-55
2024/02/28 08:56:31;;;;;;;66.43;16.00;;;3.40;99.90;;;;;;4996474;28;20046;-50
2024/02/28 08:58:57;;;;;;;76.87;19.00;;;3.40;99.90;;;;;;4996434;28;20062;-51
2024/02/28 09:01:22;;;;;;;67.27;18.67;;;3.50;99.90;;;;;;4996611;28;20032;-50
2024/02/28 09:03:48;;;;;;;63.47;16.07;;;3.60;99.90;;;;;;4996596;28;20026;-50
2024/02/28 09:06:14;;;;;;;55.03;16.20;;;3.70;99.90;;;;;;4996355;28;20065;-49
2024/02/28 09:08:40;;;;;;;64.57;16.57;;;3.70;99.90;;;;;;4996938;28;20038;-50
2024/02/28 09:11:06;;;;;;;66.53;18.40;;;3.70;99.90;;;;;;4996614;28;20030;-55
2024/02/28 09:13:31;;;;;;;68.83;18.13;;;3.80;99.90;;;;;;4995581;28;20403;-50
2024/02/28 09:15:57;;;;;;;39.83;10.87;;;3.90;99.90;;;;;;4995443;28;20077;-51
2024/02/28 09:18:23;;;;;;;54.97;17.63;;;4.00;99.90;;;;;;4995459;28;20026;-52
2024/02/28 09:20:49;;;;;;;65.67;18.33;;;4.00;99.90;;;;;;4995266;28;20459;-50
2024/02/28 09:23:14;;;;;;;71.20;17.97;;;4.10;99.90;;;;;;4995381;28;20053;-50
2024/02/28 09:25:40;;;;;;;61.53;16.27;;;4.10;99.90;;;;;;4995367;28;20033;-52
2024/02/28 09:28:06;;;;;;;69.90;18.90;;;4.30;99.90;;;;;;4995479;28;20478;-50
2024/02/28 09:30:32;;;;;;;68.40;17.50;;;4.30;99.90;;;;;;4995028;28;20034;-50
2024/02/28 09:32:57;;;;;;;64.67;18.03;;;4.50;99.90;;;;;;4995102;28;20038;-51
2024/02/28 09:35:24;;;;;;;63.23;16.70;;;4.60;99.90;;;;;;4995260;28;20038;-50
2024/02/28 09:37:49;;;;;;;63.73;18.50;;;4.70;99.90;;;;;;4995210;28;20092;-50
2024/02/28 09:40:16;;;;;;;64.57;18.37;;;4.80;99.90;;;;;;4995094;28;20162;-50
2024/02/28 09:42:41;;;;;;;65.67;18.57;;;4.90;99.90;;;;;;4995333;28;20065;-50
2024/02/28 09:45:11;;;;;;;54.80;16.97;;;4.90;99.90;;;;;;4994841;28;20069;-51
2024/02/28 09:47:37;;;;;;;61.90;18.40;;;4.80;99.90;;;;;;4995569;28;20475;-50
2024/02/28 09:50:04;;;;;;;63.03;17.73;;;5.00;99.90;;;;;;4995245;28;20033;-51
2024/02/28 09:52:30;;;;;;;56.27;18.20;;;5.10;99.90;;;;;;4995113;28;20038;-50
2024/02/28 09:54:55;;;;;;;59.00;17.97;;;5.00;99.90;;;;;;4993695;28;20125;-50
2024/02/28 09:57:28;;;;;;;61.57;17.40;;;5.00;99.90;;;;;;4995105;28;20157;-51
2024/02/28 09:59:57;;;;;;;56.27;17.50;;;5.10;99.90;;;;;;4991979;28;20031;-50
2024/02/28 10:02:24;;;;;;;56.20;15.45;;;5.10;99.90;;;;;;4990620;28;20056;-51
2024/02/28 10:04:50;;;;;;;62.20;17.87;;;5.00;99.90;;;;;;4990541;28;20030;-50
2024/02/28 10:07:17;;;;;;;59.47;18.00;;;5.00;99.90;;;;;;4991515;28;20030;-50
2024/02/28 10:09:43;;;;;;;58.70;16.13;;;5.10;99.90;;;;;;4991204;28;20035;-52
2024/02/28 10:12:10;;;;;;;60.13;17.47;;;5.10;99.90;;;;;;4990390;28;20057;-53
2024/02/28 10:14:35;;;;;;;55.83;16.30;;;5.20;99.90;;;;;;4989575;28;20479;-54
2024/02/28 10:17:01;;;;;;;51.27;15.80;;;5.30;99.90;;;;;;4990834;28;20035;-54
2024/02/28 10:19:27;;;;;;;57.27;16.20;;;5.30;99.90;;;;;;4988654;28;20034;-51
2024/02/28 10:21:53;;;;;;;53.87;15.50;;;5.40;99.90;;;;;;4991164;28;20117;-52
2024/02/28 10:24:19;;;;;;;57.17;16.40;;;5.40;99.90;;;;;;4990200;28;20023;-51
2024/02/28 10:26:47;;;;;;;51.43;15.27;;;5.40;99.90;;;;;;4991934;28;20096;-54
2024/02/28 10:29:13;;;;;;;55.78;15.68;;;5.40;99.90;;;;;;4988423;28;20113;-53
2024/02/28 10:31:41;;;;;;;46.17;15.07;;;5.40;99.90;;;;;;4990241;28;20606;-53
2024/02/28 10:34:08;;;;;;;51.90;16.37;;;5.40;99.90;;;;;;4989346;28;20480;-50
2024/02/28 10:36:35;;;;;;;49.50;14.63;;;5.50;99.90;;;;;;4991825;28;20036;-51
2024/02/28 10:39:02;;;;;;;49.77;15.80;;;5.40;99.90;;;;;;4989316;28;20038;-50
2024/02/28 10:41:29;;;;;;;47.03;14.50;;;5.40;99.90;;;;;;4989466;28;20058;-54
2024/02/28 10:43:54;;;;;;;45.97;14.20;;;5.40;99.90;;;;;;4989941;28;20023;-55
2024/02/28 10:46:23;;;;;;;46.73;16.17;;;5.40;99.90;;;;;;4990807;28;20496;-54
2024/02/28 10:48:52;;;;;;;55.10;16.13;;;5.50;99.90;;;;;;4990577;28;20074;-51
2024/02/28 10:51:22;;;;;;;;;;;5.60;99.90;;;;;;4990107;28;20035;-53
2024/02/28 10:53:54;;;;;;;41.27;12.87;;;5.60;99.90;;;;;;4990998;28;19959;-55
2024/02/28 10:56:20;;;;;;;42.17;14.37;;;5.70;99.90;;;;;;4990746;28;20050;-54
2024/02/28 10:58:53;;;;;;;44.30;14.07;;;5.80;99.90;;;;;;4989076;28;20027;-51
2024/02/28 11:01:19;;;;;;;45.77;15.73;;;5.90;99.90;;;;;;4989976;28;20030;-50
2024/02/28 11:03:45;;;;;;;42.33;14.47;;;6.00;99.90;;;;;;4990749;28;20018;-54
2024/02/28 11:06:18;;;;;;;42.87;14.97;;;6.20;99.90;;;;;;4990490;28;20454;-53
2024/02/28 11:08:53;;;;;;;47.37;15.37;;;6.30;99.90;;;;;;4990973;28;20033;-53
2024/02/28 11:11:21;;;;;;;43.37;15.77;;;6.40;99.90;;;;;;4988006;28;20053;-54
2024/02/28 11:13:57;;;;;;;47.78;14.02;;;6.50;99.90;;;;;;4989705;28;20407;-52
2024/02/28 11:16:27;;;;;;;38.83;13.53;;;6.80;99.90;;;;;;4989380;28;20381;-51
2024/02/28 11:18:54;;;;;;;42.37;14.70;;;7.00;99.90;;;;;;4987915;28;20038;-53
2024/02/28 11:21:22;;;;;;;44.57;15.00;;;7.10;99.90;;;;;;4989603;28;20144;-49
2024/02/28 11:23:48;;;;;;;42.47;14.23;;;7.40;99.90;;;;;;4989949;28;20042;-51
2024/02/28 11:26:14;;;;;;;45.17;15.33;;;7.90;99.90;;;;;;4989242;28;20034;-51
2024/02/28 11:28:39;;;;;;;42.70;15.20;;;8.10;99.90;;;;;;4989427;28;20034;-49
2024/02/28 11:31:05;;;;;;;39.80;13.37;;;8.20;99.90;;;;;;4987343;28;20092;-50
2024/02/28 11:33:33;;;;;;;35.40;12.27;;;8.10;99.90;;;;;;4988942;28;20034;-51
2024/02/28 11:35:59;;;;;;;34.57;13.57;;;8.00;99.90;;;;;;4989397;28;20120;-52
2024/02/28 11:38:25;;;;;;;38.67;12.87;;;8.30;99.90;;;;;;4989860;28;20080;-51
2024/02/28 11:40:51;;;;;;;35.27;13.73;;;9.00;99.90;;;;;;4988745;28;20030;-52
2024/02/28 11:43:20;;;;;;;35.13;12.63;;;9.40;99.90;;;;;;4989234;28;20523;-51
2024/02/28 11:45:49;;;;;;;37.08;13.48;;;9.70;99.90;;;;;;4991015;28;20034;-53
2024/02/28 11:48:14;;;;;;;37.30;14.23;;;9.80;99.90;;;;;;4992906;28;20519;-53
2024/02/28 11:50:40;;;;;;;33.87;13.80;;;9.80;99.90;;;;;;4992675;28;20038;-53
2024/02/28 11:53:07;;;;;;;33.40;13.27;;;9.70;99.90;;;;;;4992904;28;20133;-53
2024/02/28 11:55:33;;;;;;;40.10;14.10;;;9.70;99.90;;;;;;4992420;28;20042;-55
2024/02/28 11:57:58;;;;;;;35.67;13.73;;;9.70;99.90;;;;;;4989705;28;20372;-55
2024/02/28 12:00:24;;;;;;;38.30;14.30;;;9.80;99.90;;;;;;4990141;28;20483;-54
2024/02/28 12:02:50;;;;;;;30.92;12.63;;;10.60;99.90;;;;;;4990438;28;20108;-54
2024/02/28 12:05:16;;;;;;;29.17;11.95;;;10.90;99.90;;;;;;4991398;28;20038;-53
2024/02/28 12:07:42;;;;;;;35.47;12.95;;;11.10;99.90;;;;;;4991400;28;20042;-53
2024/02/28 12:10:09;;;;;;;30.35;12.88;;;11.20;99.90;;;;;;4992159;28;20045;-50
2024/02/28 12:12:35;;;;;;;33.10;13.32;;;11.30;99.90;;;;;;4992301;28;20403;-54
2024/02/28 12:15:03;;;;;;;34.70;13.48;;;11.50;99.90;;;;;;4992273;28;20049;-53
2024/02/28 12:17:29;;;;;;;35.15;13.70;;;11.70;99.90;;;;;;4992361;28;20033;-54
2024/02/28 12:19:54;;;;;;;30.75;12.65;;;12.10;99.90;;;;;;4992324;28;20387;-53
2024/02/28 12:22:21;;;;;;;33.35;12.82;;;12.80;99.90;;;;;;4992306;28;20038;-54
2024/02/28 12:24:46;;;;;;;29.38;13.00;;;12.80;99.90;;;;;;4992330;28;20030;-55
2024/02/28 12:27:12;;;;;;;26.33;11.95;;;12.90;99.90;;;;;;4992472;28;20530;-54
2024/02/28 12:29:37;;;;;;;27.98;12.25;;;13.00;99.90;;;;;;4992248;28;20060;-52
2024/02/28 12:32:03;;;;;;;28.75;12.30;;;13.30;99.90;;;;;;4992106;28;20030;-54